Wetterdaten: Woche 28.10.13 - 03.11.13 (KW44)
Datum Zeit Temperatur Luftfeuchte Luftdruck Niederschlag Windrichtung Sonnenschein Solar Wind
28.10.2013 00:00 11,4 C 90 % 1012,7 hPa 0,0 l/m W 0,00 h 0 W/m 4,3 km/h (1 Bft)
28.10.2013 01:00 11,6 C 91 % 1012,6 hPa 0,0 l/m SW 0,00 h 0 W/m 8,6 km/h (2 Bft)
28.10.2013 02:00 11,8 C 91 % 1012,2 hPa 0,0 l/m SW 0,00 h 0 W/m 11,2 km/h (2 Bft)
28.10.2013 03:00 11,8 C 91 % 1011,6 hPa 0,0 l/m SW 0,00 h 0 W/m 9,3 km/h (2 Bft)
28.10.2013 04:00 11,8 C 90 % 1010,7 hPa 0,0 l/m SW 0,00 h 0 W/m 11,4 km/h (2 Bft)
28.10.2013 05:00 11,5 C 89 % 1009,8 hPa 0,0 l/m W-SW 0,00 h 0 W/m 10,4 km/h (2 Bft)
28.10.2013 06:00 11,4 C 89 % 1008,6 hPa 0,0 l/m W-SW 0,00 h 0 W/m 4,7 km/h (1 Bft)
28.10.2013 07:00 11,1 C 91 % 1007,5 hPa 0,0 l/m SW 0,00 h 29 W/m 7,4 km/h (2 Bft)
28.10.2013 08:00 12,8 C 84 % 1006,8 hPa 0,0 l/m SW 0,00 h 58 W/m 14,1 km/h (3 Bft)
28.10.2013 09:00 15,4 C 72 % 1006,5 hPa 0,0 l/m W-SW 0,33 h 179 W/m 14,4 km/h (3 Bft)
28.10.2013 10:00 16,7 C 66 % 1006,7 hPa 0,0 l/m W-SW 0,67 h 304 W/m 19,0 km/h (3 Bft)
28.10.2013 11:00 19,2 C 51 % 1006,8 hPa 0,0 l/m SW 1,00 h 494 W/m 30,8 km/h (5 Bft)
28.10.2013 12:00 19,5 C 48 % 1006,5 hPa 0,0 l/m SW 0,83 h 401 W/m 35,7 km/h (5 Bft)
28.10.2013 13:00 20,5 C 44 % 1005,9 hPa 0,0 l/m W-SW 1,00 h 454 W/m 32,2 km/h (5 Bft)
28.10.2013 14:00 20,7 C 44 % 1005,5 hPa 0,0 l/m W-SW 1,00 h 368 W/m 33,8 km/h (5 Bft)
28.10.2013 15:00 20,7 C 42 % 1005,7 hPa 0,0 l/m W-SW 1,00 h 230 W/m 27,1 km/h (4 Bft)
28.10.2013 16:00 19,9 C 41 % 1006,1 hPa 0,0 l/m W-SW 0,58 h 63 W/m 18,5 km/h (3 Bft)
28.10.2013 17:00 18,5 C 45 % 1006,6 hPa 0,0 l/m W 0,00 h 0 W/m 15,0 km/h (3 Bft)
28.10.2013 18:00 18,0 C 49 % 1007,6 hPa 0,0 l/m W 0,00 h 0 W/m 14,8 km/h (3 Bft)
28.10.2013 19:00 16,8 C 59 % 1008,1 hPa 0,0 l/m W-NW 0,00 h 0 W/m 17,0 km/h (3 Bft)
28.10.2013 20:00 15,3 C 71 % 1008,8 hPa 0,0 l/m W-NW 0,00 h 0 W/m 14,5 km/h (3 Bft)
28.10.2013 21:00 14,7 C 75 % 1009,4 hPa 0,0 l/m W-NW 0,00 h 0 W/m 6,7 km/h (2 Bft)
28.10.2013 22:00 13,8 C 81 % 1010,1 hPa 0,0 l/m W-NW 0,00 h 0 W/m 8,7 km/h (2 Bft)
28.10.2013 23:00 12,6 C 86 % 1010,8 hPa 0,0 l/m W 0,00 h 0 W/m 9,6 km/h (2 Bft)
29.10.2013 00:00 11,3 C 86 % 1011,7 hPa 0,8 l/m W-NW 0,00 h 0 W/m 11,4 km/h (2 Bft)
29.10.2013 01:00 9,8 C 93 % 1012,1 hPa 2,0 l/m SW 0,00 h 0 W/m 9,7 km/h (2 Bft)
29.10.2013 02:00 9,4 C 95 % 1012,3 hPa 1,6 l/m SW 0,00 h 0 W/m 5,6 km/h (1 Bft)
29.10.2013 03:00 9,0 C 96 % 1012,4 hPa 0,4 l/m SW 0,00 h 0 W/m 8,8 km/h (2 Bft)
29.10.2013 04:00 8,8 C 96 % 1013,3 hPa 3,8 l/m W-SW 0,00 h 0 W/m 17,4 km/h (3 Bft)
29.10.2013 05:00 8,3 C 95 % 1013,8 hPa 1,6 l/m SW 0,00 h 0 W/m 16,9 km/h (3 Bft)
29.10.2013 06:00 7,7 C 96 % 1014,4 hPa 1,2 l/m SW 0,00 h 0 W/m 19,0 km/h (3 Bft)
29.10.2013 07:00 7,4 C 97 % 1014,9 hPa 1,0 l/m SW 0,00 h 9 W/m 19,3 km/h (3 Bft)
29.10.2013 08:00 7,6 C 97 % 1015,6 hPa 0,0 l/m SW 0,00 h 18 W/m 19,0 km/h (3 Bft)
29.10.2013 09:00 8,1 C 97 % 1015,8 hPa 0,0 l/m SW 0,00 h 115 W/m 17,6 km/h (3 Bft)
29.10.2013 10:00 9,4 C 93 % 1015,8 hPa 0,0 l/m W-SW 0,58 h 320 W/m 20,5 km/h (4 Bft)
29.10.2013 11:00 10,7 C 86 % 1015,7 hPa 0,0 l/m W-SW 0,58 h 372 W/m 22,1 km/h (4 Bft)
29.10.2013 12:00 11,5 C 78 % 1015,3 hPa 0,0 l/m W 0,67 h 362 W/m 19,3 km/h (3 Bft)
29.10.2013 13:00 11,8 C 74 % 1015,1 hPa 0,0 l/m SW 0,50 h 282 W/m 21,6 km/h (4 Bft)
29.10.2013 14:00 11,8 C 73 % 1015,2 hPa 0,0 l/m W-SW 0,58 h 242 W/m 18,5 km/h (3 Bft)
29.10.2013 15:00 11,3 C 76 % 1015,3 hPa 0,0 l/m SW 0,00 h 67 W/m 13,4 km/h (3 Bft)
29.10.2013 16:00 10,6 C 80 % 1015,6 hPa 0,0 l/m SW 0,17 h 37 W/m 12,6 km/h (3 Bft)
29.10.2013 17:00 10,0 C 83 % 1016,1 hPa 0,0 l/m SW 0,00 h 0 W/m 8,6 km/h (2 Bft)
29.10.2013 18:00 9,6 C 85 % 1016,8 hPa 0,0 l/m SW 0,00 h 0 W/m 8,4 km/h (2 Bft)
29.10.2013 19:00 9,4 C 87 % 1017,3 hPa 0,0 l/m SW 0,00 h 0 W/m 7,2 km/h (2 Bft)
29.10.2013 20:00 9,2 C 88 % 1017,6 hPa 0,0 l/m SW 0,00 h 0 W/m 6,7 km/h (2 Bft)
29.10.2013 21:00 9,1 C 89 % 1018,2 hPa 0,0 l/m N 0,00 h 0 W/m 2,0 km/h (1 Bft)
29.10.2013 22:00 8,6 C 92 % 1018,4 hPa 0,0 l/m N 0,00 h 0 W/m 1,5 km/h (1 Bft)
29.10.2013 23:00 8,4 C 95 % 1018,8 hPa 0,0 l/m N 0,00 h 0 W/m 1,2 km/h (1 Bft)
30.10.2013 00:00 8,3 C 95 % 1019,1 hPa 0,0 l/m N 0,00 h 0 W/m 0,0 km/h (0 Bft)
30.10.2013 01:00 7,9 C 96 % 1019,3 hPa 0,0 l/m N 0,00 h 0 W/m 0,0 km/h (0 Bft)
30.10.2013 02:00 7,7 C 96 % 1019,8 hPa 0,0 l/m N 0,00 h 0 W/m 0,0 km/h (0 Bft)
30.10.2013 03:00 7,4 C 96 % 1020,1 hPa 0,0 l/m N 0,00 h 0 W/m 0,0 km/h (0 Bft)
30.10.2013 04:00 7,3 C 96 % 1020,7 hPa 0,0 l/m N 0,00 h 0 W/m 0,0 km/h (0 Bft)
30.10.2013 05:00 7,2 C 96 % 1021,1 hPa 0,0 l/m SW 0,00 h 0 W/m 1,2 km/h (1 Bft)
30.10.2013 06:00 6,8 C 96 % 1021,6 hPa 0,0 l/m W-NW 0,00 h 0 W/m 4,8 km/h (1 Bft)
30.10.2013 07:00 6,0 C 95 % 1022,3 hPa 0,0 l/m NW 0,00 h 13 W/m 1,5 km/h (1 Bft)
30.10.2013 08:00 5,8 C 95 % 1023,2 hPa 0,0 l/m NW 0,50 h 97 W/m 1,7 km/h (1 Bft)
30.10.2013 09:00 7,9 C 93 % 1023,9 hPa 0,0 l/m NW 0,92 h 263 W/m 4,5 km/h (1 Bft)
30.10.2013 10:00 8,7 C 84 % 1024,2 hPa 0,0 l/m N-NW 0,00 h 61 W/m 3,7 km/h (1 Bft)
30.10.2013 11:00 9,5 C 79 % 1024,3 hPa 0,0 l/m N-NW 0,58 h 360 W/m 4,0 km/h (1 Bft)
30.10.2013 12:00 10,7 C 69 % 1023,7 hPa 0,0 l/m N-NW 0,67 h 408 W/m 6,7 km/h (2 Bft)
30.10.2013 13:00 11,1 C 65 % 1023,2 hPa 0,0 l/m W 0,67 h 295 W/m 5,9 km/h (2 Bft)
30.10.2013 14:00 11,0 C 64 % 1023,1 hPa 0,0 l/m SW 0,42 h 177 W/m 3,2 km/h (1 Bft)
30.10.2013 15:00 11,7 C 60 % 1023,0 hPa 0,0 l/m SW 1,00 h 233 W/m 5,2 km/h (1 Bft)
30.10.2013 16:00 10,9 C 67 % 1023,2 hPa 0,0 l/m O 0,58 h 56 W/m 6,1 km/h (2 Bft)
30.10.2013 17:00 8,6 C 78 % 1023,6 hPa 0,0 l/m N 0,00 h 6 W/m 0,4 km/h (0 Bft)
30.10.2013 18:00 6,5 C 86 % 1024,0 hPa 0,0 l/m O 0,00 h 0 W/m 1,1 km/h (0 Bft)
30.10.2013 19:00 5,3 C 91 % 1024,4 hPa 0,0 l/m O 0,00 h 0 W/m 1,6 km/h (1 Bft)
30.10.2013 20:00 4,8 C 92 % 1024,6 hPa 0,0 l/m O 0,00 h 0 W/m 3,1 km/h (1 Bft)
30.10.2013 21:00 4,6 C 91 % 1024,7 hPa 0,0 l/m O-NO 0,00 h 0 W/m 4,1 km/h (1 Bft)
30.10.2013 22:00 4,2 C 91 % 1025,0 hPa 0,0 l/m O-NO 0,00 h 0 W/m 3,9 km/h (1 Bft)
30.10.2013 23:00 3,7 C 93 % 1025,1 hPa 0,0 l/m O-NO 0,00 h 0 W/m 3,7 km/h (1 Bft)
31.10.2013 00:00 3,3 C 94 % 1025,2 hPa 0,0 l/m O-NO 0,00 h 0 W/m 4,1 km/h (1 Bft)
31.10.2013 01:00 3,1 C 95 % 1025,1 hPa 0,0 l/m NO 0,00 h 0 W/m 4,0 km/h (1 Bft)
31.10.2013 02:00 2,9 C 95 % 1025,1 hPa 0,0 l/m NO 0,00 h 0 W/m 4,9 km/h (1 Bft)
31.10.2013 03:00 2,6 C 95 % 1024,9 hPa 0,0 l/m NO 0,00 h 0 W/m 4,5 km/h (1 Bft)
31.10.2013 04:00 2,3 C 95 % 1024,7 hPa 0,0 l/m NO 0,00 h 0 W/m 3,9 km/h (1 Bft)
31.10.2013 05:00 2,0 C 95 % 1024,4 hPa 0,0 l/m N 0,00 h 0 W/m 3,6 km/h (1 Bft)
31.10.2013 06:00 1,7 C 95 % 1024,3 hPa 0,0 l/m NO 0,00 h 0 W/m 3,6 km/h (1 Bft)
31.10.2013 07:00 2,2 C 96 % 1024,5 hPa 0,0 l/m NO 0,00 h 14 W/m 4,9 km/h (1 Bft)
31.10.2013 08:00 2,7 C 97 % 1024,7 hPa 0,0 l/m NO 0,00 h 41 W/m 6,7 km/h (2 Bft)
31.10.2013 09:00 3,2 C 97 % 1025,0 hPa 0,0 l/m NO 0,00 h 77 W/m 6,8 km/h (2 Bft)
31.10.2013 10:00 3,8 C 97 % 1025,0 hPa 0,0 l/m NO 0,00 h 92 W/m 5,5 km/h (1 Bft)
31.10.2013 11:00 4,6 C 96 % 1024,8 hPa 0,0 l/m NO 0,00 h 90 W/m 4,7 km/h (1 Bft)
31.10.2013 12:00 5,1 C 94 % 1024,5 hPa 0,0 l/m NO 0,00 h 89 W/m 2,7 km/h (1 Bft)
31.10.2013 13:00 5,4 C 94 % 1024,0 hPa 0,0 l/m NO 0,00 h 79 W/m 3,7 km/h (1 Bft)
31.10.2013 14:00 5,4 C 94 % 1023,5 hPa 0,0 l/m NO 0,00 h 55 W/m 3,7 km/h (1 Bft)
31.10.2013 15:00 5,9 C 94 % 1023,4 hPa 0,0 l/m NO 0,00 h 32 W/m 3,1 km/h (1 Bft)
31.10.2013 16:00 6,2 C 93 % 1023,1 hPa 0,0 l/m N-NO 0,00 h 14 W/m 4,7 km/h (1 Bft)
31.10.2013 17:00 6,2 C 93 % 1023,4 hPa 0,0 l/m N-NW 0,00 h 0 W/m 3,1 km/h (1 Bft)
31.10.2013 18:00 6,2 C 93 % 1023,9 hPa 0,0 l/m W-NW 0,00 h 0 W/m 5,2 km/h (1 Bft)
31.10.2013 19:00 6,3 C 93 % 1024,1 hPa 0,0 l/m W-NW 0,00 h 0 W/m 4,8 km/h (1 Bft)
31.10.2013 20:00 6,1 C 93 % 1024,0 hPa 0,0 l/m W-SW 0,00 h 0 W/m 8,6 km/h (2 Bft)
31.10.2013 21:00 5,8 C 93 % 1024,1 hPa 0,0 l/m SW 0,00 h 0 W/m 5,2 km/h (1 Bft)
31.10.2013 22:00 5,8 C 94 % 1024,0 hPa 0,0 l/m SW 0,00 h 0 W/m 4,7 km/h (1 Bft)
31.10.2013 23:00 5,6 C 94 % 1023,9 hPa 0,0 l/m SW 0,00 h 0 W/m 4,3 km/h (1 Bft)
01.11.2013 00:00 5,7 C 95 % 1023,5 hPa 0,0 l/m SW 0,00 h 0 W/m 3,1 km/h (1 Bft)
01.11.2013 01:00 5,8 C 96 % 1023,0 hPa 0,0 l/m SW 0,00 h 0 W/m 5,6 km/h (1 Bft)
01.11.2013 02:00 5,8 C 98 % 1022,8 hPa 0,0 l/m SW 0,00 h 0 W/m 5,5 km/h (1 Bft)
01.11.2013 03:00 5,8 C 98 % 1022,4 hPa 0,0 l/m SW 0,00 h 0 W/m 4,9 km/h (1 Bft)
01.11.2013 04:00 5,8 C 96 % 1022,1 hPa 0,0 l/m N 0,00 h 0 W/m 1,5 km/h (1 Bft)
01.11.2013 05:00 5,9 C 96 % 1021,8 hPa 0,0 l/m N 0,00 h 0 W/m 0,1 km/h (0 Bft)
01.11.2013 06:00 5,8 C 96 % 1021,7 hPa 0,0 l/m N 0,00 h 0 W/m 1,5 km/h (1 Bft)
01.11.2013 07:00 5,6 C 96 % 1021,7 hPa 0,0 l/m N 0,00 h 10 W/m 0,5 km/h (0 Bft)
01.11.2013 08:00 5,9 C 96 % 1021,8 hPa 0,0 l/m SW 0,00 h 37 W/m 4,1 km/h (1 Bft)
01.11.2013 09:00 6,2 C 97 % 1021,7 hPa 0,0 l/m SW 0,00 h 49 W/m 3,7 km/h (1 Bft)
01.11.2013 10:00 6,6 C 96 % 1021,3 hPa 0,0 l/m SW 0,00 h 81 W/m 5,7 km/h (1 Bft)
01.11.2013 11:00 7,4 C 94 % 1020,6 hPa 0,0 l/m SW 0,00 h 96 W/m 5,2 km/h (1 Bft)
01.11.2013 12:00 8,2 C 93 % 1019,8 hPa 0,0 l/m SW 0,00 h 121 W/m 4,5 km/h (1 Bft)
01.11.2013 13:00 9,1 C 91 % 1018,8 hPa 0,0 l/m SW 0,00 h 112 W/m 4,7 km/h (1 Bft)
01.11.2013 14:00 9,7 C 90 % 1018,3 hPa 0,0 l/m SW 0,00 h 79 W/m 2,4 km/h (1 Bft)
01.11.2013 15:00 10,1 C 89 % 1017,4 hPa 0,0 l/m SW 0,00 h 53 W/m 4,3 km/h (1 Bft)
01.11.2013 16:00 10,0 C 90 % 1016,6 hPa 0,0 l/m SW 0,00 h 13 W/m 3,9 km/h (1 Bft)
01.11.2013 17:00 9,6 C 90 % 1016,2 hPa 0,0 l/m N 0,00 h 0 W/m 0,0 km/h (0 Bft)
01.11.2013 18:00 9,1 C 92 % 1015,9 hPa 0,0 l/m N 0,00 h 0 W/m 0,5 km/h (0 Bft)
01.11.2013 19:00 8,6 C 92 % 1015,3 hPa 0,0 l/m N 0,00 h 0 W/m 0,0 km/h (0 Bft)
01.11.2013 20:00 8,1 C 94 % 1014,6 hPa 0,0 l/m N 0,00 h 0 W/m 0,8 km/h (0 Bft)
01.11.2013 21:00 7,7 C 95 % 1014,3 hPa 0,0 l/m N 0,00 h 0 W/m 0,4 km/h (0 Bft)
01.11.2013 22:00 7,5 C 95 % 1014,1 hPa 0,0 l/m N 0,00 h 0 W/m 0,3 km/h (0 Bft)
01.11.2013 23:00 7,4 C 96 % 1013,3 hPa 0,0 l/m N 0,00 h 0 W/m 0,0 km/h (0 Bft)
02.11.2013 00:00 7,2 C 96 % 1012,4 hPa 0,0 l/m N 0,00 h 0 W/m 0,0 km/h (0 Bft)
02.11.2013 01:00 7,1 C 97 % 1011,2 hPa 0,0 l/m N 0,00 h 0 W/m 0,0 km/h (0 Bft)
02.11.2013 02:00 7,2 C 97 % 1010,1 hPa 0,0 l/m N 0,00 h 0 W/m 0,0 km/h (0 Bft)
02.11.2013 03:00 7,2 C 97 % 1009,6 hPa 0,0 l/m N 0,00 h 0 W/m 0,0 km/h (0 Bft)
02.11.2013 04:00 7,3 C 98 % 1009,5 hPa 0,2 l/m N 0,00 h 0 W/m 0,0 km/h (0 Bft)
02.11.2013 05:00 7,4 C 98 % 1009,4 hPa 1,6 l/m SW 0,00 h 0 W/m 0,7 km/h (0 Bft)
02.11.2013 06:00 8,2 C 98 % 1009,3 hPa 0,8 l/m SW 0,00 h 0 W/m 10,8 km/h (2 Bft)
02.11.2013 07:00 8,5 C 98 % 1009,2 hPa 0,4 l/m SW 0,00 h 7 W/m 11,6 km/h (2 Bft)
02.11.2013 08:00 8,8 C 99 % 1009,2 hPa 0,0 l/m SW 0,00 h 24 W/m 17,4 km/h (3 Bft)
02.11.2013 09:00 9,3 C 99 % 1009,4 hPa 0,8 l/m S-SW 0,00 h 28 W/m 15,3 km/h (3 Bft)
02.11.2013 10:00 10,7 C 98 % 1009,2 hPa 0,0 l/m W-SW 0,08 h 135 W/m 17,0 km/h (3 Bft)
02.11.2013 11:00 13,4 C 89 % 1008,8 hPa 0,0 l/m W-SW 1,00 h 438 W/m 32,7 km/h (5 Bft)
02.11.2013 12:00 14,3 C 83 % 1008,5 hPa 0,0 l/m W-SW 0,33 h 207 W/m 31,4 km/h (5 Bft)
02.11.2013 13:00 14,9 C 80 % 1008,4 hPa 0,0 l/m W-SW 0,42 h 241 W/m 29,2 km/h (5 Bft)
02.11.2013 14:00 15,6 C 76 % 1008,1 hPa 0,0 l/m SW 0,33 h 159 W/m 24,7 km/h (4 Bft)
02.11.2013 15:00 15,2 C 75 % 1008,1 hPa 0,0 l/m W-SW 0,00 h 58 W/m 24,7 km/h (4 Bft)
02.11.2013 16:00 14,8 C 76 % 1008,3 hPa 0,0 l/m W 0,08 h 16 W/m 19,8 km/h (4 Bft)
02.11.2013 17:00 13,8 C 79 % 1008,8 hPa 0,0 l/m W-SW 0,00 h 0 W/m 14,5 km/h (3 Bft)
02.11.2013 18:00 12,8 C 81 % 1009,2 hPa 0,0 l/m SW 0,00 h 0 W/m 7,1 km/h (2 Bft)
02.11.2013 19:00 11,7 C 84 % 1009,2 hPa 0,0 l/m W-SW 0,00 h 0 W/m 9,7 km/h (2 Bft)
02.11.2013 20:00 11,7 C 85 % 1008,8 hPa 0,0 l/m W-SW 0,00 h 0 W/m 11,8 km/h (2 Bft)
02.11.2013 21:00 11,5 C 83 % 1008,5 hPa 0,0 l/m W-SW 0,00 h 0 W/m 12,5 km/h (3 Bft)
02.11.2013 22:00 11,0 C 82 % 1008,1 hPa 0,0 l/m W 0,00 h 0 W/m 6,8 km/h (2 Bft)
02.11.2013 23:00 10,0 C 87 % 1007,1 hPa 0,0 l/m W 0,00 h 0 W/m 6,3 km/h (2 Bft)
03.11.2013 00:00 10,0 C 89 % 1006,2 hPa 0,0 l/m W-SW 0,00 h 0 W/m 8,2 km/h (2 Bft)
03.11.2013 01:00 11,1 C 89 % 1005,6 hPa 0,0 l/m W-SW 0,00 h 0 W/m 12,1 km/h (2 Bft)
03.11.2013 02:00 11,3 C 89 % 1006,0 hPa 0,4 l/m W-SW 0,00 h 0 W/m 12,0 km/h (2 Bft)
03.11.2013 03:00 10,6 C 93 % 1006,3 hPa 2,2 l/m W 0,00 h 0 W/m 16,8 km/h (3 Bft)
03.11.2013 04:00 10,0 C 94 % 1006,0 hPa 1,2 l/m W-SW 0,00 h 0 W/m 21,2 km/h (4 Bft)
03.11.2013 05:00 9,4 C 95 % 1005,1 hPa 0,2 l/m SW 0,00 h 0 W/m 16,9 km/h (3 Bft)
03.11.2013 06:00 9,2 C 96 % 1004,1 hPa 0,0 l/m SW 0,00 h 0 W/m 15,6 km/h (3 Bft)
03.11.2013 07:00 9,1 C 97 % 1003,7 hPa 0,0 l/m SW 0,00 h 5 W/m 9,3 km/h (2 Bft)
03.11.2013 08:00 8,3 C 95 % 1005,7 hPa 3,2 l/m W-NW 0,00 h 9 W/m 25,1 km/h (4 Bft)
03.11.2013 09:00 6,4 C 93 % 1006,9 hPa 1,0 l/m SW 0,00 h 17 W/m 12,2 km/h (2 Bft)
03.11.2013 10:00 6,5 C 95 % 1007,6 hPa 0,2 l/m SW 0,00 h 26 W/m 15,0 km/h (3 Bft)
03.11.2013 11:00 6,8 C 94 % 1008,7 hPa 1,0 l/m W-SW 0,00 h 69 W/m 21,5 km/h (4 Bft)
03.11.2013 12:00 7,1 C 91 % 1009,2 hPa 0,0 l/m W 0,00 h 110 W/m 21,6 km/h (4 Bft)
03.11.2013 13:00 7,5 C 86 % 1009,5 hPa 0,0 l/m SW 0,17 h 159 W/m 31,0 km/h (5 Bft)
03.11.2013 14:00 7,8 C 82 % 1009,7 hPa 0,0 l/m W 0,33 h 187 W/m 25,9 km/h (4 Bft)
03.11.2013 15:00 8,2 C 78 % 1010,1 hPa 0,0 l/m W 0,92 h 191 W/m 26,5 km/h (4 Bft)
03.11.2013 16:00 7,5 C 78 % 1010,4 hPa 0,0 l/m W-SW 0,33 h 34 W/m 22,3 km/h (4 Bft)
03.11.2013 17:00 6,6 C 80 % 1010,8 hPa 0,0 l/m W-SW 0,00 h 0 W/m 14,8 km/h (3 Bft)
03.11.2013 18:00 6,2 C 80 % 1011,2 hPa 0,0 l/m W-SW 0,00 h 0 W/m 18,5 km/h (3 Bft)
03.11.2013 19:00 6,3 C 80 % 1011,3 hPa 0,0 l/m W-SW 0,00 h 0 W/m 22,6 km/h (4 Bft)
03.11.2013 20:00 5,9 C 83 % 1011,4 hPa 0,0 l/m SW 0,00 h 0 W/m 20,1 km/h (4 Bft)
03.11.2013 21:00 5,3 C 86 % 1010,6 hPa 0,0 l/m W-SW 0,00 h 0 W/m 17,0 km/h (3 Bft)
03.11.2013 22:00 4,7 C 87 % 1009,5 hPa 0,0 l/m SW 0,00 h 0 W/m 12,5 km/h (3 Bft)
03.11.2013 23:00 4,8 C 88 % 1008,6 hPa 0,0 l/m W-SW 0,00 h 0 W/m 16,0 km/h (3 Bft)
Min-Datum _ 31.10.13 28.10.13 03.11.13 - - - - 28.10.13
_ Min-Zeit 06:35 16:20 07:10 - - - - 00:10
Minimum _ 1,6 C 40 % 1003,5 hPa - - - - 0,0 km/h (0 Bft)
Max-Datum _ 28.10.13 30.10.13 31.10.13 29.10.13 - 28.10.13 29.10.13 28.10.13
_ Max-Zeit 15:00 03:05 02:30 04:40 - 09:20 13:00 12:15
Maximum _ 20,8 C 100 % 1025,3 hPa 3,8 l/m - 0,08 h 612 W/m 45,1 km/h
W-SW (6 Bft)
Durchschnitt _ 9,0 C 87 % 1015,3 hPa #25,6 l/m SW #18:50 h 137 W/m 9,9 km/h (2 Bft)